CheckWX is a tool to help pilots better visualize weather data.  It is not intended as a substitute for an official pre-flight weather briefing.

06:09:32 UTC

EHGG METAR
Eelde Airport
Groningen, The Netherlands
Current

45 mins ago

EHGG 070525Z AUTO VRB02KT 0100 R23/0175N FG VV000 07/07 Q1030 BECMG 0400 BKN002
Observed
Apr-7 @ 05:25 UTC
Wind
  • Variable at 2 KTS
Visibility
Flight Rules
LIFR
Conditions
Fog
Cloud Levels
  • Vertical visibility
Temperature
C / 45°F
Dewpoint
C / 45°F
Humidity
100%
Altimeter
30.41" Hg
Pressure
1029.92 hPa
Previous

1 hour ago

EHGG 070455Z AUTO 23002KT 0150 R23/0200N FG VV000 08/08 Q1029 NOSIG
Observed
Apr-7 @ 04:55 UTC
Wind
  • 230° at 2 KTS
Visibility
Flight Rules
LIFR
Conditions
Fog
Cloud Levels
  • Vertical visibility
Temperature
C / 46°F
Dewpoint
C / 46°F
Humidity
100%
Altimeter
30.38" Hg
Pressure
1028.92 hPa
Previous

2 hours ago

EHGG 070425Z AUTO 21002KT 0200 R23/0300N FG VV000 08/08 Q1029 NOSIG
Observed
Apr-7 @ 04:25 UTC
Wind
  • 210° at 2 KTS
Visibility
Flight Rules
LIFR
Conditions
Fog
Cloud Levels
  • Vertical visibility
Temperature
C / 46°F
Dewpoint
C / 46°F
Humidity
100%
Altimeter
30.38" Hg
Pressure
1028.92 hPa